Flight Track Log - Related Links

Times and Time Zones

All times are in EST time to prevent confusion due to time zone crossing. See the UAL4434 flight status page for this flight to view local times or setup timezone preferences in your user account.

Time Position Orientation Groundspeed Altitude Reporting Facility
EST Latitude Longitude Course Direction KTS MPH feet Rate Location/Type
Mon 07:48:40 AM 39.3167 -94.7000 47° Northeast 171 197 1,700  Level Kansas City TRACON
Mon 07:49:38 AM 39.3425 -94.6644 47° Northeast 174 200 4,100 2,410 Climbing Kansas City Center
Mon 07:50:37 AM 39.3653 -94.6053 64° Northeast 208 239 6,400 2,033 Climbing Kansas City Center
Mon 07:51:39 AM 39.3172 -94.5208 126° Southeast 266 306 8,200 1,854 Climbing Kansas City Center
Mon 07:52:40 AM 39.2692 -94.4389 127° Southeast 298 343 10,200 1,636 Climbing Kansas City Center
Mon 07:53:40 AM 39.2167 -94.3461 126° Southeast 330 380 11,500 1,240 Climbing Kansas City Center
Mon 07:54:41 AM 39.1569 -94.2392 126° Southeast 380 437 12,700 1,537 Climbing Kansas City Center
Mon 07:55:41 AM 39.0944 -94.1019 120° Southeast 407 468 14,600 1,785 Climbing Kansas City Center
Mon 07:56:42 AM 39.0847 -93.9694 95° East 391 450 16,300 1,714 Climbing Kansas City Center
Mon 07:57:40 AM 39.0767 -93.8358 94° East 390 449 18,000 1,513 Climbing Kansas City Center
Mon 07:58:41 AM 39.0664 -93.6772 95° East 397 457 19,300 1,388 Climbing Kansas City Center
Mon 07:59:41 AM 39.0564 -93.5403 95° East 402 463 20,800 1,597 Climbing Kansas City Center
Mon 08:00:45 AM 39.0472 -93.3803 94° East 410 472 22,600 1,645 Climbing Kansas City Center
Mon 08:01:45 AM 39.0372 -93.2350 95° East 411 473 24,200 1,537 Climbing Kansas City Center
Mon 08:02:46 AM 39.0267 -93.0889 95° East 412 474 25,700 1,412 Climbing Kansas City Center
Mon 08:03:44 AM 39.0161 -92.9433 95° East 411 473 27,000 1,450 Climbing Kansas City Center
Mon 08:04:46 AM 38.9928 -92.8008 102° East 411 473 28,600 1,463 Climbing Kansas City Center
Mon 08:05:47 AM 38.9500 -92.6664 112° Southeast 408 470 30,000 1,073 Climbing Kansas City Center
Mon 08:06:49 AM 38.9072 -92.5281 112° Southeast 410 472 30,800 787 Climbing Kansas City Center
Mon 08:07:49 AM 38.8622 -92.3847 112° Southeast 417 480 31,600 814 Climbing Kansas City Center
Mon 08:08:47 AM 38.8136 -92.2303 112° Southeast 445 512 32,400 793 Climbing Kansas City Center
Mon 08:09:50 AM 38.7439 -92.0967 124° Southeast 448 516 33,200 774 Climbing Kansas City Center
Mon 08:10:51 AM 38.6692 -91.9642 126° Southeast 453 521 34,000 750 Climbing Kansas City Center
Mon 08:11:50 AM 38.5933 -91.8303 126° Southeast 457 526 34,700 492 Climbing Kansas City Center
Mon 08:12:53 AM 38.5178 -91.6961 126° Southeast 459 528 35,000 149 Climbing Kansas City Center
Mon 08:13:51 AM 38.4400 -91.5550 125° Southeast 472 543 35,000  Level Kansas City Center
Mon 08:14:51 AM 38.4028 -91.3647 104° East 518 596 35,000  Level Kansas City Center
Mon 08:15:52 AM 38.3806 -91.1797 99° East 528 608 35,000  Level Kansas City Center
Mon 08:16:55 AM 38.3597 -90.9936 98° East 533 613 35,000  Level Kansas City Center
Mon 08:17:56 AM 38.3378 -90.8042 98° East 540 621 35,000  Level Kansas City Center
Mon 08:18:56 AM 38.3150 -90.6158 99° East 544 626 35,000  Level Kansas City Center
Mon 08:19:56 AM 38.2911 -90.4281 99° East 544 626 35,000  Level Kansas City Center
Mon 08:20:58 AM 38.2672 -90.2439 99° East 540 621 35,000  Level Kansas City Center
Mon 08:21:59 AM 38.2431 -90.0544 99° East 546 628 35,000  Level Kansas City Center
Mon 08:22:59 AM 38.2186 -89.8642 99° East 550 633 35,000  Level Kansas City Center
Mon 08:24:00 AM 38.1942 -89.6728 99° East 551 634 35,000  Level Kansas City Center
Mon 08:24:58 AM 38.1692 -89.4833 99° East 548 631 35,000  Level Kansas City Center
Mon 08:26:01 AM 38.1381 -89.2544 100° East 551 634 35,000  Level Kansas City Center
Mon 08:27:02 AM 38.1125 -89.0650 100° East 547 629 35,000  Level Kansas City Center
Mon 08:28:03 AM 38.0858 -88.8772 100° East 544 626 35,000  Level Kansas City Center
Mon 08:29:02 AM 38.0606 -88.6911 100° East 542 624 35,000  Level Kansas City Center
Mon 08:30:04 AM 38.0322 -88.5019 101° East 543 625 35,000  Level Kansas City Center
Mon 08:31:12 AM 38.0025 -88.2800 100° East 539 620 35,000  Level Indianapolis Center
Mon 08:32:13 AM 37.9756 -88.0928 100° East 538 619 35,000  Level Indianapolis Center
Mon 08:33:14 AM 37.9481 -87.9017 100° East 547 629 35,000  Level Indianapolis Center
Mon 08:34:15 AM 37.9747 -87.7069 80° East 569 655 35,000  Level Indianapolis Center
Mon 08:35:16 AM 38.0722 -87.5472 52° Northeast 571 657 35,000  Level Indianapolis Center
Mon 08:36:17 AM 38.1758 -87.3917 50° Northeast 570 656 35,000  Level Indianapolis Center
Mon 08:37:18 AM 38.2806 -87.2325 50° Northeast 576 663 35,000  Level Indianapolis Center
Mon 08:38:19 AM 38.3758 -87.0858 50° Northeast 573 659 35,000  Level Indianapolis Center
Mon 08:39:20 AM 38.4942 -86.9089 49° Northeast 570 656 35,000  Level Indianapolis Center
Mon 08:40:21 AM 38.5975 -86.7508 50° Northeast 573 659 35,000  Level Indianapolis Center
Mon 08:41:22 AM 38.7014 -86.5919 50° Northeast 574 661 35,000  Level Indianapolis Center
Mon 08:42:23 AM 38.8033 -86.4328 51° Northeast 574 661 35,000  Level Indianapolis Center
Mon 08:43:24 AM 38.9025 -86.2789 50° Northeast 572 658 35,000  Level Indianapolis Center
Mon 08:44:25 AM 39.0025 -86.1219 51° Northeast 573 659 35,000  Level Indianapolis Center
Mon 08:45:27 AM 39.1022 -85.9650 51° Northeast 572 658 35,000  Level Indianapolis Center
Mon 08:46:28 AM 39.2019 -85.8086 51° Northeast 573 659 35,000  Level Indianapolis Center
Mon 08:47:29 AM 39.3014 -85.6517 51° Northeast 573 659 35,000  Level Indianapolis Center
Mon 08:48:30 AM 39.4200 -85.4622 51° Northeast 572 658 35,000  Level Indianapolis Center
Mon 08:49:31 AM 39.5200 -85.3028 51° Northeast 575 662 35,000  Level Indianapolis Center
Mon 08:50:32 AM 39.6192 -85.1453 51° Northeast 571 657 35,000  Level Indianapolis Center
Mon 08:51:34 AM 39.7175 -84.9850 51° Northeast 571 657 35,000  Level Indianapolis Center
Mon 08:52:35 AM 39.8156 -84.8253 51° Northeast 570 656 35,000  Level Indianapolis Center
Mon 08:53:36 AM 39.9136 -84.6628 52° Northeast 574 661 35,000  Level Indianapolis Center
Mon 08:54:37 AM 40.0131 -84.5008 51° Northeast 576 663 35,000  Level Indianapolis Center
Mon 08:55:38 AM 40.1311 -84.3069 51° Northeast 573 659 35,000  Level Indianapolis Center
Mon 08:56:39 AM 40.2278 -84.1442 52° Northeast 572 658 35,000  Level Indianapolis Center
Mon 08:57:40 AM 40.3069 -84.0008 54° Northeast 574 661 35,000  Level Indianapolis Center
Mon 08:58:41 AM 40.4047 -83.7847 59° Northeast 572 658 35,000  Level Indianapolis Center
Mon 08:59:43 AM 40.4878 -83.6039 59° Northeast 574 661 35,000  Level Indianapolis Center
Mon 09:00:44 AM 40.5700 -83.4236 59° Northeast 574 661 35,000  Level Indianapolis Center
Mon 09:01:45 AM 40.6519 -83.2431 59° Northeast 573 659 35,000  Level Indianapolis Center
Mon 09:02:46 AM 40.7375 -83.0542 59° Northeast 577 664 35,000  Level Indianapolis Center
Mon 09:03:47 AM 40.8186 -82.8717 60° Northeast 574 661 35,000  Level Indianapolis Center
Mon 09:04:48 AM 40.8992 -82.6839 60° Northeast 579 666 35,000  Level Indianapolis Center
Mon 09:05:21 AM 40.9319 -82.5878 66° East 579 666 35,000  Level Cleveland Center
Mon 09:06:22 AM 40.9767 -82.3825 74° East 576 663 35,000  Level Cleveland Center
Mon 09:07:24 AM 41.0242 -82.1803 73° East 575 662 35,000  Level Cleveland Center
Mon 09:08:25 AM 41.0711 -81.9769 73° East 576 663 35,000  Level Cleveland Center
Mon 09:09:26 AM 41.1178 -81.7750 73° East 577 664 35,000  Level Cleveland Center
Mon 09:10:27 AM 41.1603 -81.5794 74° East 573 659 35,000  Level Cleveland Center
Mon 09:11:28 AM 41.2125 -81.3447 73° East 570 656 35,000  Level Cleveland Center
Mon 09:12:29 AM 41.2556 -81.1422 74° East 568 654 35,000  Level Cleveland Center
Mon 09:13:30 AM 41.2992 -80.9386 74° East 568 654 35,000  Level Cleveland Center
Mon 09:14:31 AM 41.3428 -80.7353 74° East 567 652 35,000  Level Cleveland Center
Mon 09:15:33 AM 41.3847 -80.5339 74° East 562 647 35,000  Level Cleveland Center
Mon 09:16:34 AM 41.4278 -80.3297 74° East 563 648 35,000  Level Cleveland Center
Mon 09:17:35 AM 41.4694 -80.1294 74° East 562 647 35,000  Level Cleveland Center
Mon 09:18:36 AM 41.5092 -79.9392 74° East 566 651 35,000  Level Cleveland Center
Mon 09:19:37 AM 41.5508 -79.7356 75° East 569 655 35,000  Level Cleveland Center
Mon 09:20:38 AM 41.5997 -79.4908 75° East 570 656 35,000  Level Cleveland Center
Mon 09:21:39 AM 41.6294 -79.2842 79° East 565 650 35,000  Level Cleveland Center
Mon 09:22:40 AM 41.6128 -79.0878 96° East 541 623 35,000  Level Cleveland Center
Mon 09:23:41 AM 41.5908 -78.8919 98° East 533 613 35,000  Level Cleveland Center
Mon 09:24:42 AM 41.5694 -78.6944 98° East 535 616 35,000 -49 Level Cleveland Center
Mon 09:25:43 AM 41.5467 -78.4972 99° East 535 616 34,900 -492 Descending Cleveland Center
Mon 09:26:44 AM 41.5242 -78.3022 99° East 531 611 34,000 -934 Descending Cleveland Center
Mon 09:27:45 AM 41.5028 -78.1097 98° East 525 604 33,000 -1,033 Descending Cleveland Center
Mon 09:28:46 AM 41.4792 -77.9175 99° East 525 604 31,900 -984 Descending Cleveland Center
Mon 09:29:47 AM 41.4578 -77.7278 98° East 519 597 31,000 -439 Descending Cleveland Center
Mon 09:30:49 AM 41.4336 -77.5392 100° East 517 595 31,000  Level Cleveland Center
Mon 09:31:50 AM 41.4108 -77.3508 99° East 515 593 31,000  Level Cleveland Center
Mon 09:32:51 AM 41.3875 -77.1647 99° East 514 592 31,000  Level Cleveland Center
Mon 09:33:52 AM 41.3642 -76.9797 99° East 510 587 31,000 -295 Level Cleveland Center
Mon 09:34:53 AM 41.3303 -76.7594 102° East 509 586 30,400 -1,623 Descending Cleveland Center
Mon 09:35:54 AM 41.2881 -76.5886 108° East 490 564 27,700 -2,803 Descending Cleveland Center
Mon 09:36:55 AM 41.2425 -76.4186 110° East 491 565 24,700 -2,902 Descending Cleveland Center
Mon 09:37:56 AM 41.1986 -76.2589 110° East 463 533 21,800 -2,835 Descending Cleveland Center
Mon 09:39:02 AM 41.1561 -76.0978 109° East 448 516 18,700 -2,667 Descending New York Center
Mon 09:40:02 AM 41.1167 -75.9542 110° East 424 488 16,200 -2,100 Descending New York Center
Mon 09:41:02 AM 41.0753 -75.8025 110° East 407 468 14,500 -1,300 Descending New York Center
Mon 09:42:02 AM 41.0392 -75.6733 110° East 390 449 13,600 -750 Descending New York Center
Mon 09:43:02 AM 41.0028 -75.5442 110° East 384 442 13,000 -750 Descending New York Center
Mon 09:44:02 AM 40.9733 -75.4431 111° Southeast 351 404 12,100 -1,200 Descending New York Center
Mon 09:45:02 AM 40.9422 -75.3339 111° Southeast 317 365 10,600 -1,550 Descending New York Center
Mon 09:46:02 AM 40.9114 -75.2164 109° East 312 359 9,000 -1,400 Descending New York Center
Mon 09:47:02 AM 40.8817 -75.1131 111° Southeast 307 353 7,800 -1,000 Descending New York Center
Mon 09:48:02 AM 40.8522 -75.0122 111° Southeast 296 341 7,000 -500 Descending New York Center
Mon 09:49:02 AM 40.8306 -74.9178 107° East 296 341 6,800 -500 Descending New York Center
Mon 09:50:02 AM 40.8742 -74.7969 64° Northeast 296 341 6,000 -400 Descending New York Center
Mon 09:51:02 AM 40.9175 -74.6897 62° Northeast 317 365 6,000  Level New York Center
Mon 09:52:02 AM 40.9481 -74.5786 70° East 317 365 6,000 -200 Level New York Center
Mon 09:53:02 AM 40.9536 -74.4747 86° East 312 359 5,600 -500 Descending New York Center
Mon 09:54:02 AM 40.9594 -74.3486 86° East 307 353 5,000 -581 Descending New York Center
Mon 09:54:35 AM 40.9500 -74.3000 104° East 293 337 4,700 -690 Descending New York TRACON
Mon 09:55:29 AM 40.9167 -74.2167 118° Southeast 276 318 4,000 -526 Descending New York TRACON
Mon 09:56:29 AM 40.8833 -74.1333 118° Southeast 275 316 3,700 -650 Descending New York TRACON
Mon 09:57:29 AM 40.8333 -74.0833 143° Southeast 209 241 2,700 -842 Descending New York TRACON
Mon 09:58:23 AM 40.8000 -74.1000 201° Southwest 168 193 2,100 -789 Descending New York TRACON
Mon 09:59:23 AM 40.7500 -74.1333 207° Southwest 135 155 1,200 -800 Descending New York TRACON
Mon 10:00:23 AM 40.7167 -74.1500 201° Southwest 141 162 500 -700 Descending New York TRACON

Login

Don't have an account? Register now (free) for customized features, flight alerts, and more!